Atco, New Jersey
Current Conditions -  °F | °C
As of 10:54 PM on Thursday 18 Dec 2014 (Local Time) from KVAY Reporting Station
Broken Clouds Broken Clouds  
Wind Chill: 29°   Ceiling: 3500
Heat Index: 37°   Visibility: 10mi
Dew Point: 25°   Wind: 12mph
Humidity: 62%   Direction: 290°WNW
Pressure: 30.03"   Gusts: 16mph
Location:  39.77°N, 74.89°W
Report Text: KVAY 190354Z AUTO 29010G14KT 10SM BKN035 03/M04 A3003 RMK AO2 SLP168 T00281039
Loading
Personal Weather Stations






























Interactive Weather Map New forecast layout! Learn more

10-Day Weather Forecast

Advertisements
Track Severe Weather on mobile